createdAt,value
2023-05-01T00:04:29.059Z,100751.16
2023-05-01T00:09:32.443Z,100752.22
2023-05-01T00:14:35.018Z,100737.84
2023-05-01T00:19:37.618Z,100735.50
2023-05-01T00:24:40.176Z,100759.00
2023-05-01T00:29:42.706Z,100761.34
2023-05-01T00:34:47.885Z,100761.22
2023-05-01T00:39:50.523Z,100738.16
2023-05-01T00:44:53.121Z,100755.78
2023-05-01T00:49:56.350Z,100762.13
2023-05-01T00:54:59.452Z,100727.72
2023-05-01T01:00:02.391Z,100758.00
2023-05-01T01:05:06.728Z,100793.97
2023-05-01T01:21:21.138Z,100791.56
2023-05-01T01:32:15.559Z,100774.41
2023-05-01T01:37:24.093Z,100793.31
2023-05-01T01:42:35.120Z,100789.97
2023-05-01T01:47:41.849Z,100789.75
2023-05-01T01:52:49.629Z,100789.97
2023-05-01T01:57:53.661Z,100802.09
2023-05-01T02:02:59.406Z,100816.38
2023-05-01T02:08:05.286Z,100799.88
2023-05-01T02:13:09.504Z,100796.63
2023-05-01T02:18:13.686Z,100818.63
2023-05-01T02:23:16.839Z,100812.56
2023-05-01T02:28:22.957Z,100833.66
2023-05-01T02:33:25.939Z,100838.72
2023-05-01T02:38:29.378Z,100844.44
2023-05-01T02:43:34.383Z,100853.38
2023-05-01T02:48:39.589Z,100868.19
2023-05-01T02:53:42.700Z,100858.53
2023-05-01T02:58:54.323Z,100866.63
2023-05-01T03:03:57.072Z,100854.91
2023-05-01T03:08:59.818Z,100846.94
2023-05-01T03:14:02.406Z,100843.06
2023-05-01T03:19:06.173Z,100845.41
2023-05-01T03:24:08.868Z,100879.91
2023-05-01T03:29:13.395Z,100887.25
2023-05-01T03:34:16.287Z,100885.22
2023-05-01T03:39:19.302Z,100887.66
2023-05-01T03:44:41.573Z,100890.44
2023-05-01T03:49:44.211Z,100891.41
2023-05-01T03:54:47.388Z,100880.19
2023-05-01T03:59:57.677Z,100866.59
2023-05-01T04:05:01.147Z,100871.06
2023-05-01T04:10:07.327Z,100864.81
2023-05-01T04:15:10.511Z,100865.97
2023-05-01T04:20:13.063Z,100864.69
2023-05-01T04:25:16.111Z,100860.94
2023-05-01T04:30:20.561Z,100865.44
2023-05-01T04:35:23.717Z,100882.41
2023-05-01T04:40:26.336Z,100905.66
2023-05-01T04:45:29.088Z,100903.69
2023-05-01T04:50:31.987Z,100915.19
2023-05-01T04:55:36.056Z,100913.75
2023-05-01T05:00:43.374Z,100910.41
2023-05-01T05:05:52.182Z,100931.56
2023-05-01T05:11:00.149Z,100937.69
2023-05-01T05:16:07.491Z,100932.41
2023-05-01T05:21:10.671Z,100933.47
2023-05-01T05:26:18.265Z,100949.25
2023-05-01T05:31:21.048Z,100957.88
2023-05-01T05:36:24.935Z,100957.31
2023-05-01T05:41:30.827Z,100965.00
2023-05-01T05:46:36.284Z,100976.41
2023-05-01T05:51:38.947Z,100960.09
2023-05-01T05:56:43.410Z,100964.56
2023-05-01T06:01:47.440Z,100960.13
2023-05-01T06:06:52.650Z,100968.22
2023-05-01T06:11:55.768Z,101005.19
2023-05-01T06:16:58.605Z,100994.00
2023-05-01T06:22:01.169Z,101013.38
2023-05-01T06:27:05.219Z,100992.25
2023-05-01T06:32:08.152Z,101024.09
2023-05-01T06:37:10.904Z,101011.94
2023-05-01T06:42:16.232Z,101000.97
2023-05-01T06:47:18.791Z,101036.13
2023-05-01T06:52:21.371Z,101014.63
2023-05-01T06:57:23.967Z,101019.91
2023-05-01T07:02:26.795Z,101029.53
2023-05-01T07:07:31.050Z,101023.94
2023-05-01T07:12:33.723Z,101033.75
2023-05-01T07:17:36.471Z,101044.88
2023-05-01T07:22:39.373Z,101053.22
2023-05-01T07:27:42.222Z,101068.38
2023-05-01T07:32:45.309Z,101056.47
2023-05-01T07:37:51.683Z,101048.84
2023-05-01T07:42:54.803Z,101062.94
2023-05-01T07:47:57.627Z,101053.59
2023-05-01T07:53:00.470Z,101074.97
2023-05-01T07:58:03.762Z,101059.22
2023-05-01T08:03:09.387Z,101049.72
2023-05-01T08:08:13.444Z,101050.63
2023-05-01T08:13:16.250Z,101062.13
2023-05-01T08:18:23.177Z,101066.13
2023-05-01T08:23:26.099Z,101058.34
2023-05-01T08:28:29.128Z,101073.78
2023-05-01T08:33:32.035Z,101080.47
2023-05-01T08:38:37.595Z,101086.03
2023-05-01T08:43:41.090Z,101088.41
2023-05-01T08:48:46.087Z,101072.59
2023-05-01T08:53:52.585Z,101072.06
2023-05-01T08:58:57.711Z,101085.31
2023-05-01T09:04:03.642Z,101088.53
2023-05-01T09:09:08.377Z,101070.63
2023-05-01T09:14:11.697Z,101087.94
2023-05-01T09:19:14.573Z,101085.50
2023-05-01T09:24:17.775Z,101078.31
2023-05-01T09:29:42.771Z,101080.78
2023-05-01T09:34:45.585Z,101071.59
2023-05-01T09:39:48.728Z,101073.22
2023-05-01T09:44:52.961Z,101087.22
2023-05-01T09:49:58.041Z,101094.44
2023-05-01T09:55:18.783Z,101088.88
2023-05-01T10:00:22.753Z,101102.63
2023-05-01T10:05:26.579Z,101100.19
2023-05-01T10:10:29.876Z,101104.63
2023-05-01T10:15:40.318Z,101121.91
2023-05-01T10:20:44.549Z,101119.88
2023-05-01T10:25:51.476Z,101134.69
2023-05-01T10:30:56.051Z,101116.56
2023-05-01T10:36:01.133Z,101111.13
2023-05-01T10:41:04.382Z,101119.47
2023-05-01T10:51:26.649Z,101110.72
2023-05-01T11:01:45.777Z,101105.25
2023-05-01T11:18:00.849Z,101111.66
2023-05-01T11:23:03.711Z,101110.59
2023-05-01T11:28:07.514Z,101107.59
2023-05-01T11:33:13.255Z,101104.81
2023-05-01T11:38:19.042Z,101109.03
2023-05-01T11:43:21.710Z,101107.16
2023-05-01T11:48:24.399Z,101092.22
2023-05-01T11:53:27.031Z,101103.44
2023-05-01T11:58:33.663Z,101099.66
2023-05-01T12:03:44.502Z,101105.34
2023-05-01T12:08:51.416Z,101101.66
2023-05-01T12:13:54.281Z,101109.38
2023-05-01T12:18:57.516Z,101118.19
2023-05-01T12:24:18.285Z,101117.31
2023-05-01T12:29:20.853Z,101111.44
2023-05-01T12:34:31.434Z,101115.63
2023-05-01T12:39:39.165Z,101130.91
2023-05-01T12:44:43.353Z,101136.44
2023-05-01T12:49:46.159Z,101135.41
2023-05-01T12:54:50.620Z,101139.53
2023-05-01T13:00:00.561Z,101132.50
2023-05-01T13:05:08.728Z,101145.63
2023-05-01T13:10:11.410Z,101145.69
2023-05-01T13:15:22.202Z,101136.19
2023-05-01T13:20:27.091Z,101140.38
2023-05-01T13:25:29.711Z,101139.56
2023-05-01T13:30:33.772Z,101150.94
2023-05-01T13:35:36.439Z,101160.09
2023-05-01T13:40:40.965Z,101162.00
2023-05-01T13:45:43.584Z,101170.69
2023-05-01T13:50:46.388Z,101184.78
2023-05-01T13:55:48.901Z,101186.59
2023-05-01T14:00:51.642Z,101186.97
2023-05-01T14:05:54.394Z,101193.78
2023-05-01T14:10:59.754Z,101189.16
2023-05-01T14:16:10.505Z,101188.00
2023-05-01T14:21:17.604Z,101205.41
2023-05-01T14:26:22.335Z,101212.72
2023-05-01T14:31:29.584Z,101219.16
2023-05-01T14:36:34.090Z,101226.34
2023-05-01T14:41:40.646Z,101232.78
2023-05-01T14:46:47.325Z,101235.13
2023-05-01T14:51:50.719Z,101239.09
2023-05-01T14:56:53.413Z,101237.31
2023-05-01T15:01:56.102Z,101240.44
2023-05-01T15:06:58.826Z,101236.03
2023-05-01T15:12:01.561Z,101228.38
2023-05-01T15:17:04.121Z,101229.91
2023-05-01T15:22:06.890Z,101232.19
2023-05-01T15:27:09.404Z,101225.69
2023-05-01T15:32:13.113Z,101233.59
2023-05-01T15:37:15.892Z,101239.53
2023-05-01T15:42:19.562Z,101237.47
2023-05-01T15:47:22.265Z,101235.31
2023-05-01T15:52:24.854Z,101244.53
2023-05-01T15:57:27.477Z,101256.06
2023-05-01T16:02:32.933Z,101248.44
2023-05-01T16:07:35.945Z,101261.28
2023-05-01T16:12:38.578Z,101262.41
2023-05-01T16:17:43.973Z,101279.94
2023-05-01T16:22:46.739Z,101287.84
2023-05-01T16:27:49.312Z,101283.78
2023-05-01T16:32:51.909Z,101296.88
2023-05-01T16:37:55.553Z,101296.78
2023-05-01T16:43:02.621Z,101311.94
2023-05-01T16:48:06.300Z,101312.63
2023-05-01T16:53:09.485Z,101314.94
2023-05-01T16:58:12.053Z,101329.09
2023-05-01T17:03:18.867Z,101336.16
2023-05-01T17:08:21.587Z,101348.13
2023-05-01T17:13:24.068Z,101346.38
2023-05-01T17:18:27.909Z,101349.53
2023-05-01T17:23:30.564Z,101358.97
2023-05-01T17:28:33.180Z,101356.44
2023-05-01T17:33:35.954Z,101361.97
2023-05-01T17:38:38.535Z,101363.47
2023-05-01T17:43:44.782Z,101372.16
2023-05-01T17:48:48.845Z,101370.88
2023-05-01T17:53:51.684Z,101373.41
2023-05-01T17:58:55.113Z,101366.81
2023-05-01T18:03:58.002Z,101361.00
2023-05-01T18:09:01.628Z,101368.59
2023-05-01T18:14:05.319Z,101367.25
2023-05-01T18:19:07.956Z,101370.72
2023-05-01T18:24:10.612Z,101357.28
2023-05-01T18:29:13.745Z,101359.22
2023-05-01T18:34:16.481Z,101353.03
2023-05-01T18:39:22.037Z,101355.84
2023-05-01T18:44:24.755Z,101352.16
2023-05-01T18:49:27.462Z,101344.22
2023-05-01T18:54:32.298Z,101341.00
2023-05-01T18:59:34.862Z,101347.31
2023-05-01T19:04:49.449Z,101351.72
2023-05-01T19:09:59.395Z,101344.34
2023-05-01T19:15:02.156Z,101357.88
2023-05-01T19:20:07.218Z,101357.00
2023-05-01T19:25:10.105Z,101349.81
2023-05-01T19:30:12.800Z,101358.75
2023-05-01T19:35:15.608Z,101361.09
2023-05-01T19:40:18.323Z,101378.59
2023-05-01T19:45:21.157Z,101376.09
2023-05-01T19:50:23.752Z,101371.66
2023-05-01T19:55:26.595Z,101379.25
2023-05-01T20:00:29.199Z,101367.09
2023-05-01T20:05:32.651Z,101385.00
2023-05-01T20:10:35.412Z,101386.66
2023-05-01T20:15:39.605Z,101376.53
2023-05-01T20:20:42.836Z,101381.31
2023-05-01T20:25:47.842Z,101378.50
2023-05-01T20:30:50.873Z,101378.88
2023-05-01T20:35:54.179Z,101379.16
2023-05-01T20:40:56.850Z,101388.06
2023-05-01T20:46:00.974Z,101382.41
2023-05-01T20:51:03.680Z,101385.81
2023-05-01T20:56:06.399Z,101379.59
2023-05-01T21:01:09.261Z,101375.13
2023-05-01T21:06:12.221Z,101377.00
2023-05-01T21:11:15.308Z,101382.78
2023-05-01T21:16:19.927Z,101385.94
2023-05-01T21:21:22.901Z,101393.50
2023-05-01T21:26:25.832Z,101394.06
2023-05-01T21:31:32.612Z,101390.38
2023-05-01T21:36:45.184Z,101388.16
2023-05-01T21:41:49.573Z,101402.56
2023-05-01T21:46:55.120Z,101389.25
2023-05-01T21:52:00.844Z,101388.78
2023-05-01T21:57:07.717Z,101396.09
2023-05-01T22:02:12.271Z,101409.22
2023-05-01T22:07:15.609Z,101398.34
2023-05-01T22:12:18.412Z,101409.84
2023-05-01T22:17:24.514Z,101413.91
2023-05-01T22:22:27.128Z,101418.69
2023-05-01T22:27:30.113Z,101431.53
2023-05-01T22:32:32.839Z,101426.72
2023-05-01T22:37:35.448Z,101434.47
2023-05-01T22:42:38.132Z,101446.50
2023-05-01T22:47:40.997Z,101444.44
2023-05-01T22:52:45.835Z,101449.75
2023-05-01T22:57:49.207Z,101463.00
2023-05-01T23:02:51.969Z,101475.91
2023-05-01T23:07:54.561Z,101476.50
2023-05-01T23:12:57.605Z,101470.00
2023-05-01T23:18:00.303Z,101464.97
2023-05-01T23:23:05.418Z,101468.59
2023-05-01T23:28:09.537Z,101463.00
2023-05-01T23:33:12.676Z,101463.44
2023-05-01T23:38:15.400Z,101460.38
2023-05-01T23:43:18.458Z,101462.56
2023-05-01T23:48:21.104Z,101471.81
2023-05-01T23:53:23.829Z,101482.78
2023-05-01T23:58:26.440Z,101475.13
